Terminal Aerodrome Forecast
Issued by NWS Twin Cities, MN

Home | Current Version | Previous Version | Graphics & Text | Print | Product List | Glossary On
Versions: 1 2 3 4 5 6 7 8 9 10 11 12 13 14 15 16 17 18 19 20 21 22 23 24 25 26
000
FTUS43 KMPX 230000 CCA
TAFSTC
TAF COR
KSTC 230013Z 2300/2324 04004KT P6SM SCT018 BKN035
      TEMPO 2300/2303 BKN018
     FM230600 04002KT 3SM BR SCT003
     FM230800 05003KT 1/2SM FG VV002
     FM231400 07007KT P6SM BKN012
     FM231800 09010KT 6SM -RA BR SCT012 OVC040=

USA.gov is the U.S. government's official web portal to all federal, state and local government web resources and services.